createdAt,value
2019-03-15T00:01:56.454Z,26.07
2019-03-15T00:06:09.231Z,23.20
2019-03-15T00:10:21.473Z,16.93
2019-03-15T00:14:33.798Z,30.00
2019-03-15T00:18:47.239Z,24.27
2019-03-15T00:22:59.534Z,26.07
2019-03-15T00:27:12.231Z,35.10
2019-03-15T00:31:24.797Z,36.23
2019-03-15T00:35:37.286Z,30.57
2019-03-15T00:39:49.521Z,25.17
2019-03-15T00:44:02.744Z,37.03
2019-03-15T00:48:16.287Z,35.93
2019-03-15T00:52:28.608Z,29.50
2019-03-15T00:56:40.922Z,32.63
2019-03-15T01:00:53.816Z,29.10
2019-03-15T01:05:06.624Z,36.43
2019-03-15T01:09:19.426Z,31.17
2019-03-15T01:13:32.126Z,31.70
2019-03-15T01:17:44.531Z,35.60
2019-03-15T01:21:57.328Z,31.87
2019-03-15T01:26:09.834Z,29.90
2019-03-15T01:30:22.182Z,41.97
2019-03-15T01:34:34.494Z,40.97
2019-03-15T01:38:47.915Z,34.27
2019-03-15T01:43:00.718Z,39.83
2019-03-15T01:47:13.211Z,39.70
2019-03-15T01:51:25.490Z,36.40
2019-03-15T01:55:37.808Z,28.27
2019-03-15T01:59:50.599Z,32.13
2019-03-15T02:04:02.958Z,32.67
2019-03-15T02:08:15.940Z,35.10
2019-03-15T02:12:28.564Z,32.07
2019-03-15T02:16:41.486Z,35.90
2019-03-15T02:20:53.947Z,31.70
2019-03-15T02:25:06.492Z,35.40
2019-03-15T02:29:19.348Z,27.50
2019-03-15T02:33:33.411Z,19.57
2019-03-15T02:37:46.980Z,19.00
2019-03-15T02:41:59.471Z,13.10
2019-03-15T02:46:12.317Z,19.60
2019-03-15T02:50:25.928Z,24.17
2019-03-15T02:54:38.388Z,25.23
2019-03-15T02:58:51.723Z,19.80
2019-03-15T03:03:04.172Z,27.47
2019-03-15T03:07:17.062Z,23.47
2019-03-15T03:11:29.709Z,18.27
2019-03-15T03:15:42.065Z,17.63
2019-03-15T03:19:54.996Z,14.73
2019-03-15T03:24:07.468Z,12.27
2019-03-15T03:28:20.446Z,18.10
2019-03-15T03:32:33.106Z,16.67
2019-03-15T03:36:45.512Z,14.90
2019-03-15T03:40:58.399Z,24.47
2019-03-15T03:45:11.027Z,15.70
2019-03-15T03:49:23.327Z,14.77
2019-03-15T03:53:36.054Z,11.67
2019-03-15T03:57:48.513Z,15.87
2019-03-15T04:02:00.912Z,9.67
2019-03-15T04:06:13.609Z,12.87
2019-03-15T04:10:26.073Z,11.53
2019-03-15T04:14:38.627Z,18.47
2019-03-15T04:18:52.033Z,14.63
2019-03-15T04:23:04.431Z,19.23
2019-03-15T04:27:17.143Z,17.37
2019-03-15T04:31:30.052Z,18.00
2019-03-15T04:35:42.607Z,19.67
2019-03-15T04:39:55.024Z,20.83
2019-03-15T04:44:07.920Z,22.73
2019-03-15T04:48:20.445Z,22.33
2019-03-15T04:52:32.835Z,20.50
2019-03-15T04:56:45.669Z,23.63
2019-03-15T05:00:58.025Z,24.67
2019-03-15T05:05:10.624Z,21.23
2019-03-15T05:09:23.873Z,18.43
2019-03-15T05:13:36.199Z,21.17
2019-03-15T05:17:49.055Z,20.70
2019-03-15T05:22:01.441Z,20.57
2019-03-15T05:26:13.740Z,22.93
2019-03-15T05:30:26.629Z,24.60
2019-03-15T05:34:39.190Z,18.83
2019-03-15T05:38:51.499Z,18.17
2019-03-15T05:43:04.493Z,21.40
2019-03-15T05:47:17.283Z,22.80
2019-03-15T05:51:29.631Z,16.27
2019-03-15T05:55:42.351Z,23.73
2019-03-15T05:59:55.994Z,19.20
2019-03-15T06:04:08.251Z,9.67
2019-03-15T06:08:20.549Z,12.13
2019-03-15T06:12:32.768Z,13.40
2019-03-15T06:16:45.555Z,13.33
2019-03-15T06:20:58.114Z,13.07
2019-03-15T06:25:10.811Z,14.33
2019-03-15T06:29:23.469Z,14.03
2019-03-15T06:33:35.807Z,16.10
2019-03-15T06:37:48.666Z,18.80
2019-03-15T06:42:01.219Z,18.70
2019-03-15T06:46:13.184Z,17.93
2019-03-15T06:50:25.426Z,16.13
2019-03-15T06:54:37.799Z,11.90
2019-03-15T06:58:50.536Z,11.43
2019-03-15T07:03:02.992Z,17.53
2019-03-15T07:07:15.975Z,11.60
2019-03-15T07:11:28.440Z,13.50
2019-03-15T07:15:44.044Z,19.30
2019-03-15T07:19:55.167Z,15.80
2019-03-15T07:24:07.852Z,14.40
2019-03-15T07:28:20.142Z,13.83
2019-03-15T07:32:32.445Z,14.27
2019-03-15T07:36:45.796Z,17.83
2019-03-15T07:40:58.100Z,13.17
2019-03-15T07:45:10.893Z,14.07
2019-03-15T07:49:23.483Z,9.23
2019-03-15T07:53:35.861Z,16.97
2019-03-15T07:57:48.716Z,15.20
2019-03-15T08:02:01.199Z,15.43
2019-03-15T08:06:13.618Z,12.20
2019-03-15T08:10:25.932Z,12.03
2019-03-15T08:14:38.828Z,10.17
2019-03-15T08:18:51.647Z,11.13
2019-03-15T08:23:04.212Z,13.40
2019-03-15T08:27:17.059Z,14.93
2019-03-15T08:31:29.652Z,11.67
2019-03-15T08:35:41.965Z,14.40
2019-03-15T08:39:54.955Z,15.97
2019-03-15T08:44:07.418Z,19.83
2019-03-15T08:48:19.952Z,22.10
2019-03-15T08:52:32.811Z,18.00
2019-03-15T08:56:45.275Z,16.57
2019-03-15T09:00:57.745Z,20.87
2019-03-15T09:05:10.095Z,26.77
2019-03-15T09:09:22.784Z,22.20
2019-03-15T09:13:35.699Z,24.57
2019-03-15T09:17:48.063Z,18.53
2019-03-15T09:22:00.849Z,30.13
2019-03-15T09:26:13.694Z,19.17
2019-03-15T09:30:26.195Z,15.47
2019-03-15T09:34:39.242Z,22.77
2019-03-15T09:38:51.684Z,19.70
2019-03-15T09:43:04.101Z,21.47
2019-03-15T09:47:16.604Z,20.77
2019-03-15T09:51:29.425Z,20.83
2019-03-15T09:55:41.960Z,24.03
2019-03-15T09:59:55.012Z,23.57
2019-03-15T10:04:07.612Z,22.53
2019-03-15T10:08:23.396Z,22.30
2019-03-15T10:12:34.075Z,17.50
2019-03-15T10:16:46.405Z,22.83
2019-03-15T10:20:58.799Z,24.17
2019-03-15T10:25:11.451Z,27.50
2019-03-15T10:29:24.051Z,26.43
2019-03-15T10:33:49.606Z,28.90
2019-03-15T10:37:50.508Z,25.87
2019-03-15T10:42:03.295Z,27.80
2019-03-15T10:46:15.859Z,24.17
2019-03-15T10:50:28.300Z,25.40
2019-03-15T10:54:41.163Z,35.77
2019-03-15T10:58:53.614Z,22.17
2019-03-15T11:03:06.228Z,38.33
2019-03-15T11:07:19.671Z,31.17
2019-03-15T11:11:32.092Z,26.93
2019-03-15T11:15:44.500Z,23.23
2019-03-15T11:19:57.949Z,26.50
2019-03-15T11:24:10.831Z,26.17
2019-03-15T11:28:23.393Z,21.53
2019-03-15T11:32:35.817Z,18.83
2019-03-15T11:36:57.797Z,25.27
2019-03-15T11:41:02.809Z,24.67
2019-03-15T11:45:15.289Z,28.00
2019-03-15T11:49:28.450Z,29.37
2019-03-15T11:53:41.407Z,26.53
2019-03-15T11:57:54.137Z,22.93
2019-03-15T12:02:06.610Z,25.80
2019-03-15T12:06:19.561Z,25.53
2019-03-15T12:10:32.055Z,27.37
2019-03-15T12:14:45.147Z,19.67
2019-03-15T12:18:57.403Z,32.60
2019-03-15T12:23:09.707Z,26.73
2019-03-15T12:27:22.496Z,28.63
2019-03-15T12:31:35.059Z,24.73
2019-03-15T12:35:47.460Z,19.50
2019-03-15T12:40:00.979Z,17.53
2019-03-15T12:44:13.797Z,21.73
2019-03-15T12:48:26.353Z,19.50
2019-03-15T12:52:47.198Z,18.67
2019-03-15T12:56:54.220Z,21.50
2019-03-15T13:01:07.039Z,19.67
2019-03-15T13:05:19.492Z,19.60
2019-03-15T13:09:33.032Z,18.10
2019-03-15T13:13:45.346Z,17.40
2019-03-15T13:17:58.807Z,18.13
2019-03-15T13:22:11.205Z,17.50
2019-03-15T13:26:24.095Z,13.27
2019-03-15T13:30:36.547Z,14.77
2019-03-15T13:34:48.852Z,15.83
2019-03-15T13:39:02.304Z,14.73
2019-03-15T13:43:14.772Z,12.87
2019-03-15T13:47:27.712Z,15.37
2019-03-15T13:51:40.300Z,18.70
2019-03-15T13:55:52.680Z,17.90
2019-03-15T14:00:05.867Z,18.37
2019-03-15T14:04:18.117Z,15.17
2019-03-15T14:08:31.471Z,12.07
2019-03-15T14:12:43.970Z,15.93
2019-03-15T14:16:56.669Z,15.93
2019-03-15T14:21:09.219Z,15.23
2019-03-15T14:25:21.536Z,16.00
2019-03-15T14:29:34.427Z,15.10
2019-03-15T14:33:47.124Z,14.60
2019-03-15T14:37:59.968Z,14.10
2019-03-15T14:42:12.414Z,15.10
2019-03-15T14:46:24.890Z,18.17
2019-03-15T14:50:37.859Z,15.33
2019-03-15T14:54:50.183Z,15.00
2019-03-15T14:59:02.484Z,17.87
2019-03-15T15:03:14.698Z,11.10
2019-03-15T15:07:28.049Z,16.13
2019-03-15T15:11:40.567Z,20.30
2019-03-15T15:15:53.611Z,13.87
2019-03-15T15:20:06.135Z,14.90
2019-03-15T15:24:18.900Z,16.57
2019-03-15T15:28:31.352Z,15.13
2019-03-15T15:32:43.760Z,11.13
2019-03-15T15:36:57.108Z,15.03
2019-03-15T15:41:09.513Z,10.23
2019-03-15T15:45:22.303Z,10.87
2019-03-15T15:49:34.834Z,14.90
2019-03-15T15:53:47.235Z,15.73
2019-03-15T15:58:00.068Z,15.70
2019-03-15T16:02:12.317Z,16.27
2019-03-15T16:06:24.723Z,17.27
2019-03-15T16:10:37.511Z,12.23
2019-03-15T16:14:49.971Z,12.30
2019-03-15T16:19:02.887Z,20.17
2019-03-15T16:23:15.305Z,15.97
2019-03-15T16:27:27.999Z,13.90
2019-03-15T16:31:40.450Z,15.90
2019-03-15T16:35:52.865Z,13.27
2019-03-15T16:40:05.955Z,11.30
2019-03-15T16:44:18.314Z,10.37
2019-03-15T16:48:30.616Z,10.27
2019-03-15T16:52:43.000Z,14.43
2019-03-15T16:56:55.792Z,13.50
2019-03-15T17:01:08.289Z,12.53
2019-03-15T17:05:21.171Z,20.33
2019-03-15T17:09:33.731Z,21.43
2019-03-15T17:13:46.045Z,19.63
2019-03-15T17:17:58.931Z,24.80
2019-03-15T17:22:11.444Z,18.77
2019-03-15T17:26:23.779Z,17.60
2019-03-15T17:30:36.018Z,17.57
2019-03-15T17:34:48.794Z,21.70
2019-03-15T17:39:01.244Z,16.30
2019-03-15T17:43:13.552Z,16.30
2019-03-15T17:47:26.343Z,22.00
2019-03-15T17:51:38.931Z,21.13
2019-03-15T17:55:51.376Z,21.50
2019-03-15T18:00:24.121Z,16.30
2019-03-15T18:04:36.791Z,22.17
2019-03-15T18:08:49.149Z,15.33
2019-03-15T18:13:01.555Z,23.10
2019-03-15T18:17:15.106Z,21.10
2019-03-15T18:21:27.529Z,21.67
2019-03-15T18:25:39.893Z,20.03
2019-03-15T18:29:52.514Z,17.00
2019-03-15T18:34:05.076Z,15.27
2019-03-15T18:38:17.965Z,11.37
2019-03-15T18:42:30.649Z,19.40
2019-03-15T18:46:43.036Z,17.70
2019-03-15T18:50:54.971Z,19.33
2019-03-15T18:55:07.692Z,21.50
2019-03-15T18:59:20.653Z,12.73
2019-03-15T19:03:33.153Z,14.00
2019-03-15T19:07:46.764Z,18.27
2019-03-15T19:11:59.059Z,19.87
2019-03-15T19:16:20.069Z,20.87
2019-03-15T19:20:25.712Z,17.10
2019-03-15T19:24:38.258Z,24.00
2019-03-15T19:28:52.425Z,18.63
2019-03-15T19:33:05.612Z,11.90
2019-03-15T19:37:17.956Z,14.13
2019-03-15T19:41:30.289Z,16.47
2019-03-15T19:45:42.688Z,10.40
2019-03-15T19:49:55.519Z,14.17
2019-03-15T19:54:08.058Z,13.93
2019-03-15T19:58:20.612Z,11.50
2019-03-15T20:02:33.236Z,15.90
2019-03-15T20:06:46.167Z,13.77
2019-03-15T20:10:58.731Z,15.73
2019-03-15T20:15:11.196Z,16.27
2019-03-15T20:19:23.919Z,9.27
2019-03-15T20:23:36.371Z,15.10
2019-03-15T20:27:48.696Z,10.57
2019-03-15T20:32:01.155Z,12.30
2019-03-15T20:36:13.890Z,15.50
2019-03-15T20:40:26.364Z,14.90
2019-03-15T20:44:38.751Z,14.40
2019-03-15T20:48:51.651Z,10.87
2019-03-15T20:53:09.744Z,13.03
2019-03-15T20:57:18.752Z,15.60
2019-03-15T21:01:31.362Z,14.13
2019-03-15T21:05:43.603Z,22.73
2019-03-15T21:09:56.491Z,17.90
2019-03-15T21:14:09.053Z,15.63
2019-03-15T21:18:22.692Z,14.10
2019-03-15T21:22:35.012Z,17.33
2019-03-15T21:26:48.200Z,19.33
2019-03-15T21:31:00.528Z,15.17
2019-03-15T21:35:12.899Z,17.03
2019-03-15T21:39:25.643Z,21.83
2019-03-15T21:43:38.110Z,18.23
2019-03-15T21:47:50.446Z,21.87
2019-03-15T21:52:03.344Z,25.77
2019-03-15T21:56:16.003Z,17.33
2019-03-15T22:00:28.484Z,19.10
2019-03-15T22:04:41.348Z,17.90
2019-03-15T22:08:53.940Z,22.87
2019-03-15T22:13:06.255Z,17.17
2019-03-15T22:17:19.701Z,19.90
2019-03-15T22:21:32.003Z,13.37
2019-03-15T22:25:44.891Z,18.30
2019-03-15T22:29:57.343Z,12.27
2019-03-15T22:34:09.732Z,11.33
2019-03-15T22:38:26.415Z,8.93
2019-03-15T22:42:37.315Z,11.70
2019-03-15T22:46:49.936Z,11.60
2019-03-15T22:51:02.490Z,13.80
2019-03-15T22:55:14.935Z,9.97
2019-03-15T22:59:27.798Z,9.33
2019-03-15T23:03:40.161Z,11.50
2019-03-15T23:07:53.757Z,13.27
2019-03-15T23:12:06.114Z,11.27
2019-03-15T23:16:18.513Z,10.90
2019-03-15T23:20:31.869Z,9.60
2019-03-15T23:24:44.264Z,9.13
2019-03-15T23:28:57.620Z,10.87
2019-03-15T23:33:10.025Z,12.13
2019-03-15T23:37:22.898Z,12.57
2019-03-15T23:41:35.483Z,11.20
2019-03-15T23:45:47.897Z,8.63
2019-03-15T23:50:00.775Z,10.37
2019-03-15T23:54:13.341Z,12.07
2019-03-15T23:58:26.362Z,11.43
